createdAt,value
2022-08-24T00:01:58.200Z,3.03
2022-08-24T00:04:46.763Z,3.22
2022-08-24T00:07:37.734Z,3.45
2022-08-24T00:10:26.516Z,3.35
2022-08-24T00:13:14.548Z,2.85
2022-08-24T00:16:02.660Z,2.97
2022-08-24T00:18:50.406Z,2.75
2022-08-24T00:21:37.809Z,3.20
2022-08-24T00:24:25.069Z,3.38
2022-08-24T00:27:12.506Z,3.58
2022-08-24T00:29:59.796Z,3.15
2022-08-24T00:32:48.618Z,3.47
2022-08-24T00:35:36.346Z,3.05
2022-08-24T00:38:23.603Z,3.22
2022-08-24T00:41:16.743Z,3.33
2022-08-24T00:44:05.551Z,3.33
2022-08-24T00:47:10.518Z,3.35
2022-08-24T00:50:09.866Z,3.20
2022-08-24T00:53:01.396Z,3.17
2022-08-24T00:55:52.989Z,3.10
2022-08-24T00:58:46.353Z,3.33
2022-08-24T01:04:39.280Z,3.35
2022-08-24T01:07:30.663Z,3.05
2022-08-24T01:10:24.961Z,3.08
2022-08-24T01:13:14.435Z,3.10
2022-08-24T01:18:52.038Z,3.83
2022-08-24T01:21:54.273Z,3.63
2022-08-24T01:24:41.881Z,2.72
2022-08-24T01:27:29.954Z,3.42
2022-08-24T01:30:18.248Z,2.95
2022-08-24T01:33:10.171Z,3.08
2022-08-24T01:36:04.964Z,3.47
2022-08-24T01:38:53.289Z,3.45
2022-08-24T01:41:40.683Z,3.90
2022-08-24T01:44:30.702Z,3.53
2022-08-24T01:47:18.112Z,3.20
2022-08-24T01:50:05.761Z,3.28
2022-08-24T01:53:08.839Z,3.35
2022-08-24T01:55:56.199Z,3.55
2022-08-24T01:58:45.288Z,3.47
2022-08-24T02:04:23.424Z,3.65
2022-08-24T02:07:10.704Z,3.20
2022-08-24T02:09:58.744Z,4.03
2022-08-24T02:12:57.635Z,4.13
2022-08-24T02:15:45.161Z,3.03
2022-08-24T02:18:40.558Z,3.35
2022-08-24T02:21:27.820Z,3.65
2022-08-24T02:24:15.630Z,3.80
2022-08-24T02:27:03.093Z,3.78
2022-08-24T02:29:50.410Z,3.78
2022-08-24T02:32:37.945Z,3.67
2022-08-24T02:35:26.005Z,3.97
2022-08-24T02:38:13.260Z,3.65
2022-08-24T02:41:00.863Z,3.70
2022-08-24T02:43:48.280Z,3.78
2022-08-24T02:46:36.411Z,3.67
2022-08-24T02:49:23.936Z,4.32
2022-08-24T02:52:11.333Z,3.90
2022-08-24T02:54:58.598Z,3.30
2022-08-24T02:57:47.605Z,4.10
2022-08-24T03:00:36.369Z,4.28
2022-08-24T03:03:23.644Z,4.43
2022-08-24T03:06:11.025Z,4.25
2022-08-24T03:08:58.348Z,3.47
2022-08-24T03:11:45.771Z,3.92
2022-08-24T03:14:33.564Z,4.13
2022-08-24T03:17:20.824Z,4.03
2022-08-24T03:20:11.773Z,3.85
2022-08-24T03:22:59.082Z,3.75
2022-08-24T03:25:46.407Z,3.97
2022-08-24T03:28:34.008Z,4.22
2022-08-24T03:31:21.844Z,4.38
2022-08-24T03:34:09.216Z,4.70
2022-08-24T03:36:56.477Z,4.18
2022-08-24T03:39:43.831Z,4.32
2022-08-24T03:42:31.129Z,4.00
2022-08-24T03:45:18.861Z,4.00
2022-08-24T03:48:06.110Z,4.18
2022-08-24T03:50:53.341Z,3.97
2022-08-24T03:53:42.367Z,4.40
2022-08-24T03:56:31.006Z,4.07
2022-08-24T03:59:20.103Z,4.70
2022-08-24T04:02:07.626Z,4.30
2022-08-24T04:04:58.057Z,4.43
2022-08-24T04:07:45.300Z,4.32
2022-08-24T04:10:33.563Z,4.60
2022-08-24T04:13:20.798Z,4.68
2022-08-24T04:16:10.482Z,4.07
2022-08-24T04:18:57.956Z,4.75
2022-08-24T04:21:45.285Z,3.88
2022-08-24T04:24:32.539Z,4.20
2022-08-24T04:27:19.826Z,4.70
2022-08-24T04:30:07.839Z,4.97
2022-08-24T04:32:55.270Z,4.75
2022-08-24T04:35:47.033Z,3.95
2022-08-24T04:38:34.759Z,4.65
2022-08-24T04:41:31.140Z,4.50
2022-08-24T04:44:19.205Z,4.18
2022-08-24T04:47:08.693Z,4.03
2022-08-24T04:52:43.004Z,4.95
2022-08-24T04:55:30.352Z,5.43
2022-08-24T04:58:18.056Z,4.53
2022-08-24T05:01:10.011Z,5.00
2022-08-24T05:03:57.396Z,5.32
2022-08-24T05:06:44.718Z,4.95
2022-08-24T05:09:32.011Z,4.70
2022-08-24T05:12:20.733Z,4.57
2022-08-24T05:15:08.537Z,5.10
2022-08-24T05:17:55.787Z,5.40
2022-08-24T05:20:45.248Z,5.25
2022-08-24T05:26:25.312Z,5.63
2022-08-24T05:29:12.920Z,5.68
2022-08-24T05:32:02.258Z,5.97
2022-08-24T05:34:52.001Z,5.57
2022-08-24T05:37:40.201Z,5.22
2022-08-24T05:40:27.491Z,5.53
2022-08-24T05:43:20.837Z,5.07
2022-08-24T05:46:08.212Z,4.68
2022-08-24T05:48:57.884Z,5.43
2022-08-24T05:51:45.638Z,5.32
2022-08-24T05:54:33.017Z,4.90
2022-08-24T05:57:20.785Z,5.00
2022-08-24T06:00:10.499Z,5.10
2022-08-24T06:02:57.893Z,4.95
2022-08-24T06:05:45.341Z,5.03
2022-08-24T06:08:40.626Z,4.85
2022-08-24T06:11:34.965Z,4.57
2022-08-24T06:14:26.806Z,4.40
2022-08-24T06:17:14.579Z,4.30
2022-08-24T06:20:01.978Z,4.75
2022-08-24T06:22:49.236Z,4.90
2022-08-24T06:25:58.524Z,3.90
2022-08-24T06:28:45.917Z,3.90
2022-08-24T06:31:40.165Z,4.18
2022-08-24T06:34:30.549Z,4.55
2022-08-24T06:37:18.345Z,4.57
2022-08-24T06:40:07.381Z,4.10
2022-08-24T06:42:54.666Z,4.10
2022-08-24T06:45:43.874Z,4.70
2022-08-24T06:48:33.686Z,4.05
2022-08-24T06:51:22.525Z,4.23
2022-08-24T06:54:09.783Z,3.63
2022-08-24T06:56:58.508Z,3.78
2022-08-24T06:59:45.925Z,4.07
2022-08-24T07:02:34.113Z,4.05
2022-08-24T07:05:21.407Z,4.53
2022-08-24T07:08:08.749Z,4.90
2022-08-24T07:10:55.985Z,4.45
2022-08-24T07:13:44.460Z,4.07
2022-08-24T07:16:31.696Z,4.47
2022-08-24T07:19:18.945Z,3.53
2022-08-24T07:22:06.208Z,4.07
2022-08-24T07:24:53.465Z,4.57
2022-08-24T07:27:40.724Z,4.03
2022-08-24T07:30:28.416Z,3.50
2022-08-24T07:33:15.689Z,3.30
2022-08-24T07:36:03.065Z,3.58
2022-08-24T07:38:54.609Z,4.15
2022-08-24T07:42:11.028Z,3.00
2022-08-24T07:44:51.897Z,3.28
2022-08-24T07:47:44.618Z,3.05
2022-08-24T07:50:37.297Z,2.95
2022-08-24T07:53:32.499Z,3.00
2022-08-24T07:56:31.758Z,3.58
2022-08-24T07:59:19.104Z,3.10
2022-08-24T08:02:10.623Z,2.67
2022-08-24T08:04:57.892Z,3.15
2022-08-24T08:07:48.794Z,3.25
2022-08-24T08:10:38.249Z,3.13
2022-08-24T08:13:25.493Z,3.25
2022-08-24T08:16:13.038Z,2.75
2022-08-24T08:19:09.781Z,3.38
2022-08-24T08:22:15.966Z,3.28
2022-08-24T08:25:05.344Z,3.33
2022-08-24T08:30:41.891Z,2.90
2022-08-24T08:36:17.082Z,3.33
2022-08-24T08:39:04.461Z,3.63
2022-08-24T08:42:29.493Z,3.25
2022-08-24T08:45:22.820Z,3.08
2022-08-24T08:48:40.921Z,3.25
2022-08-24T08:51:34.317Z,2.55
2022-08-24T08:54:51.328Z,3.58
2022-08-24T08:58:00.232Z,2.83
2022-08-24T09:01:01.436Z,3.15
2022-08-24T09:04:29.802Z,3.33
2022-08-24T09:07:32.889Z,3.25
2022-08-24T09:10:44.513Z,2.88
2022-08-24T09:13:40.065Z,3.20
2022-08-24T09:16:35.524Z,3.58
2022-08-24T09:19:51.660Z,3.20
2022-08-24T09:22:43.472Z,2.80
2022-08-24T09:25:59.270Z,3.03
2022-08-24T09:28:58.277Z,3.45
2022-08-24T09:32:08.209Z,3.20
2022-08-24T09:35:03.853Z,3.00
2022-08-24T09:38:00.669Z,3.83
2022-08-24T09:41:31.960Z,3.10
2022-08-24T09:44:40.505Z,2.78
2022-08-24T09:47:46.588Z,3.08
2022-08-24T09:50:55.789Z,2.75
2022-08-24T09:54:05.555Z,3.55
2022-08-24T09:57:12.065Z,3.15
2022-08-24T10:00:14.985Z,3.50
2022-08-24T10:03:14.396Z,2.67
2022-08-24T10:09:20.553Z,2.80
2022-08-24T10:12:32.665Z,3.30
2022-08-24T10:15:28.115Z,3.60
2022-08-24T10:18:46.165Z,3.13
2022-08-24T10:21:48.381Z,3.72
2022-08-24T10:24:50.867Z,2.92
2022-08-24T10:28:05.733Z,3.42
2022-08-24T10:31:09.679Z,3.30
2022-08-24T10:34:46.525Z,2.90
2022-08-24T10:38:32.320Z,3.25
2022-08-24T10:41:42.159Z,3.53
2022-08-24T10:44:48.596Z,3.33
2022-08-24T10:47:36.693Z,3.10
2022-08-24T10:50:49.600Z,3.08
2022-08-24T10:53:37.140Z,3.78
2022-08-24T10:56:39.350Z,2.90
2022-08-24T11:00:12.721Z,3.47
2022-08-24T11:03:21.271Z,3.70
2022-08-24T11:06:17.558Z,2.83
2022-08-24T11:11:54.993Z,3.17
2022-08-24T11:14:47.638Z,2.70
2022-08-24T11:17:35.449Z,2.78
2022-08-24T11:20:36.352Z,2.90
2022-08-24T11:23:31.738Z,3.00
2022-08-24T11:26:22.106Z,3.00
2022-08-24T11:29:09.412Z,3.45
2022-08-24T11:31:58.766Z,2.63
2022-08-24T11:37:37.258Z,2.72
2022-08-24T11:40:28.965Z,2.75
2022-08-24T11:43:31.557Z,2.60
2022-08-24T11:46:37.288Z,2.80
2022-08-24T11:49:34.498Z,2.50
2022-08-24T11:52:30.609Z,2.78
2022-08-24T11:55:24.593Z,2.33
2022-08-24T11:58:45.792Z,2.50
2022-08-24T12:01:47.843Z,2.40
2022-08-24T12:04:49.474Z,2.25
2022-08-24T12:07:50.890Z,1.85
2022-08-24T12:11:08.499Z,2.03
2022-08-24T12:14:00.656Z,2.17
2022-08-24T12:17:03.091Z,2.00
2022-08-24T12:19:54.713Z,1.60
2022-08-24T12:22:42.585Z,2.15
2022-08-24T12:25:51.332Z,2.00
2022-08-24T12:28:54.245Z,1.75
2022-08-24T12:31:56.686Z,2.47
2022-08-24T12:35:08.969Z,2.25
2022-08-24T12:38:14.473Z,2.08
2022-08-24T12:41:14.601Z,1.75
2022-08-24T12:44:15.669Z,2.22
2022-08-24T12:47:03.095Z,2.08
2022-08-24T12:50:02.345Z,1.90
2022-08-24T12:56:14.861Z,1.83
2022-08-24T12:59:24.846Z,1.70
2022-08-24T13:02:14.965Z,2.10
2022-08-24T13:05:15.312Z,2.00
2022-08-24T13:08:12.020Z,2.08
2022-08-24T13:11:12.457Z,2.30
2022-08-24T13:14:21.841Z,2.28
2022-08-24T13:17:11.842Z,2.30
2022-08-24T13:20:26.506Z,1.98
2022-08-24T13:23:18.761Z,1.90
2022-08-24T13:26:27.768Z,2.05
2022-08-24T13:29:16.520Z,2.25
2022-08-24T13:32:07.128Z,2.70
2022-08-24T13:34:56.888Z,2.25
2022-08-24T13:38:22.320Z,2.03
2022-08-24T13:41:34.314Z,2.20
2022-08-24T13:44:41.420Z,2.33
2022-08-24T13:47:47.184Z,2.58
2022-08-24T13:50:46.203Z,2.80
2022-08-24T13:56:57.076Z,2.20
2022-08-24T14:00:32.133Z,2.50
2022-08-24T14:03:19.308Z,3.25
2022-08-24T14:06:39.261Z,2.60
2022-08-24T14:09:50.681Z,2.08
2022-08-24T14:13:19.647Z,2.65
2022-08-24T14:16:49.005Z,2.13
2022-08-24T14:19:54.266Z,2.58
2022-08-24T14:22:56.137Z,2.45
2022-08-24T14:25:44.554Z,2.38
2022-08-24T14:28:42.270Z,2.28
2022-08-24T14:31:29.903Z,2.20
2022-08-24T14:34:28.265Z,2.15
2022-08-24T14:37:18.318Z,2.50
2022-08-24T14:40:22.437Z,2.30
2022-08-24T14:43:34.663Z,2.42
2022-08-24T14:46:45.211Z,1.83
2022-08-24T14:50:12.861Z,2.30
2022-08-24T14:53:37.838Z,2.33
2022-08-24T14:56:58.497Z,2.45
2022-08-24T15:00:04.432Z,2.55
2022-08-24T15:02:51.707Z,2.63
2022-08-24T15:05:43.778Z,2.13
2022-08-24T15:08:39.081Z,2.20
2022-08-24T15:11:27.605Z,2.67
2022-08-24T15:14:38.392Z,2.33
2022-08-24T15:17:36.024Z,2.13
2022-08-24T15:21:09.670Z,2.13
2022-08-24T15:23:59.532Z,2.00
2022-08-24T15:27:17.731Z,2.20
2022-08-24T15:30:07.288Z,1.90
2022-08-24T15:33:06.321Z,2.00
2022-08-24T15:38:56.211Z,2.67
2022-08-24T15:41:43.640Z,2.05
2022-08-24T15:44:32.003Z,2.17
2022-08-24T15:47:35.468Z,2.38
2022-08-24T15:50:33.410Z,2.40
2022-08-24T15:53:37.028Z,2.38
2022-08-24T15:56:35.499Z,2.13
2022-08-24T15:59:28.399Z,2.10
2022-08-24T16:02:31.227Z,2.25
2022-08-24T16:05:21.614Z,2.58
2022-08-24T16:08:11.689Z,2.00
2022-08-24T16:11:19.554Z,2.35
2022-08-24T16:14:14.329Z,2.08
2022-08-24T16:17:27.427Z,2.55
2022-08-24T16:20:31.845Z,2.30
2022-08-24T16:23:28.916Z,7.25
2022-08-24T16:26:19.062Z,3.70
2022-08-24T16:29:06.657Z,2.33
2022-08-24T16:32:11.113Z,2.30
2022-08-24T16:35:08.478Z,2.55
2022-08-24T16:37:55.745Z,2.22
2022-08-24T16:40:44.054Z,2.00
2022-08-24T16:43:40.607Z,2.50
2022-08-24T16:46:27.928Z,2.30
2022-08-24T16:49:15.259Z,2.25
2022-08-24T16:52:03.852Z,2.50
2022-08-24T16:54:51.172Z,2.38
2022-08-24T16:57:38.802Z,2.72
2022-08-24T17:00:26.091Z,2.33
2022-08-24T17:03:15.179Z,2.40
2022-08-24T17:06:02.627Z,2.50
2022-08-24T17:08:50.101Z,2.40
2022-08-24T17:11:37.511Z,2.63
2022-08-24T17:14:24.853Z,3.15
2022-08-24T17:17:15.239Z,2.35
2022-08-24T17:20:09.513Z,2.40
2022-08-24T17:22:57.679Z,2.20
2022-08-24T17:25:45.292Z,2.50
2022-08-24T17:28:38.549Z,2.22
2022-08-24T17:31:25.976Z,2.53
2022-08-24T17:34:13.304Z,2.40
2022-08-24T17:37:01.435Z,2.35
2022-08-24T17:39:57.320Z,2.58
2022-08-24T17:42:51.254Z,2.33
2022-08-24T17:45:41.088Z,2.17
2022-08-24T17:48:28.394Z,2.20
2022-08-24T17:51:16.294Z,2.30
2022-08-24T17:54:03.629Z,2.30
2022-08-24T17:56:51.401Z,1.92
2022-08-24T17:59:38.812Z,2.10
2022-08-24T18:02:26.297Z,2.35
2022-08-24T18:05:14.814Z,2.38
2022-08-24T18:08:02.575Z,2.20
2022-08-24T18:10:49.822Z,2.25
2022-08-24T18:13:37.109Z,2.33
2022-08-24T18:16:27.375Z,2.40
2022-08-24T18:19:15.134Z,2.33
2022-08-24T18:22:04.415Z,2.35
2022-08-24T18:27:38.896Z,2.47
2022-08-24T18:30:30.569Z,2.70
2022-08-24T18:33:18.158Z,2.50
2022-08-24T18:36:05.497Z,3.40
2022-08-24T18:38:53.234Z,4.70
2022-08-24T18:41:43.134Z,5.28
2022-08-24T18:44:31.859Z,4.53
2022-08-24T18:47:19.294Z,4.78
2022-08-24T18:50:07.531Z,3.72
2022-08-24T18:52:56.210Z,3.30
2022-08-24T18:55:46.031Z,3.00
2022-08-24T18:58:33.296Z,3.50
2022-08-24T19:01:22.666Z,8.32
2022-08-24T19:04:14.067Z,7.43
2022-08-24T19:07:01.590Z,7.25
2022-08-24T19:09:48.945Z,5.43
2022-08-24T19:12:46.794Z,4.80
2022-08-24T19:15:39.780Z,3.83
2022-08-24T19:18:27.852Z,3.67
2022-08-24T19:21:15.157Z,3.85
2022-08-24T19:24:04.431Z,4.20
2022-08-24T19:26:52.140Z,3.53
2022-08-24T19:29:55.052Z,3.33
2022-08-24T19:32:44.096Z,3.20
2022-08-24T19:35:34.696Z,3.50
2022-08-24T19:38:25.688Z,3.60
2022-08-24T19:41:15.120Z,2.80
2022-08-24T19:44:27.703Z,3.20
2022-08-24T19:47:15.442Z,2.80
2022-08-24T19:50:07.704Z,3.28
2022-08-24T19:52:57.490Z,3.55
2022-08-24T19:55:49.728Z,3.65
2022-08-24T19:58:46.588Z,3.70
2022-08-24T20:01:36.525Z,4.30
2022-08-24T20:04:24.297Z,4.28
2022-08-24T20:07:17.557Z,3.70
2022-08-24T20:10:12.375Z,3.83
2022-08-24T20:13:01.149Z,3.42
2022-08-24T20:15:48.573Z,3.63
2022-08-24T20:18:36.476Z,3.92
2022-08-24T20:21:28.209Z,3.70
2022-08-24T20:24:17.264Z,3.15
2022-08-24T20:27:04.709Z,3.15
2022-08-24T20:29:54.299Z,3.58
2022-08-24T20:32:41.800Z,3.72
2022-08-24T20:35:29.772Z,4.30
2022-08-24T20:38:19.210Z,3.55
2022-08-24T20:43:53.905Z,3.85
2022-08-24T20:46:41.849Z,3.80
2022-08-24T20:49:34.117Z,4.07
2022-08-24T20:52:21.540Z,3.83
2022-08-24T20:55:12.522Z,4.05
2022-08-24T20:58:02.932Z,3.90
2022-08-24T21:00:50.255Z,3.70
2022-08-24T21:03:37.709Z,3.70
2022-08-24T21:06:25.084Z,3.92
2022-08-24T21:09:12.851Z,3.88
2022-08-24T21:12:01.934Z,3.80
2022-08-24T21:14:49.194Z,3.72
2022-08-24T21:20:25.720Z,3.53
2022-08-24T21:23:13.025Z,3.70
2022-08-24T21:26:06.248Z,4.68
2022-08-24T21:28:56.126Z,4.15
2022-08-24T21:32:03.345Z,3.80
2022-08-24T21:34:50.594Z,3.70
2022-08-24T21:37:38.385Z,3.75
2022-08-24T21:40:26.241Z,4.13
2022-08-24T21:43:17.973Z,3.95
2022-08-24T21:46:05.810Z,3.72
2022-08-24T21:48:53.118Z,3.90
2022-08-24T21:51:40.410Z,4.20
2022-08-24T21:54:27.654Z,3.58
2022-08-24T21:57:15.430Z,3.42
2022-08-24T22:00:07.157Z,3.50
2022-08-24T22:02:54.476Z,2.97
2022-08-24T22:05:41.841Z,2.80
2022-08-24T22:08:29.117Z,3.13
2022-08-24T22:11:19.041Z,2.97
2022-08-24T22:14:06.358Z,2.75
2022-08-24T22:16:54.000Z,2.67
2022-08-24T22:19:41.320Z,3.03
2022-08-24T22:22:28.630Z,2.58
2022-08-24T22:25:15.973Z,3.22
2022-08-24T22:28:03.920Z,2.78
2022-08-24T22:30:51.249Z,2.50
2022-08-24T22:33:38.533Z,3.15
2022-08-24T22:36:28.247Z,2.85
2022-08-24T22:39:16.368Z,3.10
2022-08-24T22:42:04.476Z,2.60
2022-08-24T22:44:51.746Z,2.70
2022-08-24T22:47:39.085Z,2.92
2022-08-24T22:50:26.533Z,2.90
2022-08-24T22:53:14.301Z,2.55
2022-08-24T22:56:01.794Z,2.67
2022-08-24T22:58:49.835Z,2.85
2022-08-24T23:01:40.129Z,2.55
2022-08-24T23:04:32.022Z,2.78
2022-08-24T23:07:19.736Z,2.88
2022-08-24T23:10:07.591Z,2.88
2022-08-24T23:12:54.844Z,2.42
2022-08-24T23:15:42.336Z,2.72
2022-08-24T23:18:49.257Z,2.30
2022-08-24T23:21:36.676Z,2.75
2022-08-24T23:24:24.009Z,2.95
2022-08-24T23:27:12.700Z,2.75
2022-08-24T23:30:00.026Z,2.90
2022-08-24T23:32:47.519Z,2.88
2022-08-24T23:35:36.190Z,2.83
2022-08-24T23:38:24.216Z,2.53
2022-08-24T23:41:14.241Z,2.65
2022-08-24T23:44:07.433Z,3.17
2022-08-24T23:46:56.227Z,2.97
2022-08-24T23:49:43.471Z,2.75
2022-08-24T23:52:30.839Z,2.33
2022-08-24T23:55:21.171Z,2.20
2022-08-24T23:58:09.349Z,2.58
